Home > Products > Valid Products > MTR

000
SAUS46 KSEW 251234
MTRSMP
SPECI KSMP 251227Z AUTO VRB05KT 1/4SM FG VV002 07/06 A3017 RMK AO2
T00670056 $





000
SAUS46 KSEW 250857
MTRSMP
METAR KSMP 250856Z AUTO VRB05KT 1/4SM FG VV002 07/06 A3020 RMK AO2
SLP227 T00720061 57005 $





000
SAUS46 KSEW 250806 COR
MTRSMP
METAR KSMP 250756Z AUTO VRB04KT 1/4SM FG VV002 07/06 A3020 RMK AO2
SLP229 T00720061 400940056 $





000
SAUS46 KSEW 250659
MTRSMP
METAR KSMP 250656Z AUTO VRB05KT 1/4SM FG VV002 07/06 A3021 RMK AO2
SLP231 T00720061 $





000
SAUS46 KSEW 250538
MTRSMP
SPECI KSMP 250535Z AUTO VRB04KT 1SM BR BKN003 BKN008 OVC013 08/07
A3022 RMK AO2 T00780067 $





000
SAUS46 KSEW 250449
MTRSMP
SPECI KSMP 250447Z AUTO 28007KT 2SM BR BKN003 BKN008 OVC011 08/07
A3022 RMK AO2 VIS 1V5 T00780067 $





000
SAUS46 KSEW 250444
MTRSMP
SPECI KSMP 250442Z AUTO VRB06KT 4SM BR BKN005 BKN008 OVC013 08/07
A3022 RMK AO2 T00780067 $





000
SAUS46 KSEW 250427
MTRSMP
SPECI KSMP 250425Z AUTO VRB06KT 2 1/2SM BR BKN003 OVC008 08/07 A3022
RMK AO2 VIS 1V5 T00780067 $





000
SAUS46 KSEW 250352
MTRSMP
SPECI KSMP 250345Z AUTO VRB06KT 3/4SM BR OVC002 08/07 A3021 RMK AO2
VIS 1/4V5 P0001 T00830072 $





000
SAUS46 KSEW 250301
MTRSMP
METAR KSMP 250256Z AUTO VRB05KT M1/4SM FG VV002 08/07 A3021 RMK AO2
RAE38 SLP232 P0004 60006 T00830072 57004 $





000
SAUS46 KSEW 250140
MTRSMP
SPECI KSMP 250137Z AUTO VRB06KT 3/4SM BR BKN005 OVC010 08/07 A3022
RMK AO2 VIS 1/4V4 RAE02B20E34 P0001 T00830072 $





000
SAUS46 KSEW 250110
MTRSMP
SPECI KSMP 250109Z AUTO 28007G15KT 240V320 1 1/2SM BR BKN005 OVC009
08/07 A3022 RMK AO2 VIS 1/4V4 RAE02 P0000 T00830072 $





000
SAUS46 KSEW 250004
MTRSMP
SPECI KSMP 250003Z AUTO 27009G18KT 210V300 10SM BKN006 BKN014 OVC019
09/07 A3022 RMK AO2 T00890072 $





000
SAUS46 KSEW 242054 COR
MTRSMP
SPECI KSMP 242047Z AUTO 27007G21KT 200V310 4SM BR OVC004 08/07 A3023
RMK AO2 RAE32 P0002 T00780067 $





000
SAUS46 KSEW 240404
MTRSMP
METAR KSMP 240356Z AUTO VRB05KT 10SM BKN018 BKN026 OVC043 06/04
A3009 RMK AO2 RAB10E26 SLP188 P0000 T00610044 $





000
SAUS46 KSEW 240248
MTRSMP
SPECI KSMP 240243Z AUTO 28007KT 230V310 4SM BR SCT002 BKN007 OVC013
06/05 A3007 RMK AO2 T00610050 $





000
SAUS46 KSEW 240003
MTRSMP
METAR KSMP 232356Z AUTO VRB05KT 4SM -RA BR FEW003 BKN050 OVC060
08/07 A3006 RMK AO2 RAB41E52B54 SLP171 P0000 60007 T00830072 10111
20078 52001 $





000
SAUS46 KSEW 231032
MTRSMP
SPECI KSMP 231030Z AUTO 00000KT 4SM BR BKN075 BKN110 12/11 A3008 RMK
AO2 T01220111





000
SAUS46 KSEW 230926
MTRSMP
SPECI KSMP 230923Z AUTO VRB03KT 2SM BR FEW002 SCT037 SCT048 13/11
A3011 RMK AO2 VIS 1V4 T01280111





000
SAUS46 KSEW 230818
MTRSMP
SPECI KSMP 230816Z AUTO 05003KT 3/4SM BR VV002 12/11 A3012 RMK AO2
T01220111





000
SAUS46 KSEW 230804
MTRSMP
METAR KSMP 230756Z AUTO 00000KT 1/2SM FG SCT002 BKN065 12/11 A3012
RMK AO2 RAE0657 SLP188 P0000 T01220111 401670106





000
SAUS46 KSEW 221829
MTRSMP
SPECI KSMP 221821Z AUTO VRB03KT 7SM FEW005 BKN048 OVC060 12/10 A3013
RMK AO2 T01170100





    US Dept of Commerce
    National Oceanic and Atmospheric Administration
    National Weather Service
    1325 East West Highway
    Silver Spring, MD 20910
    Page Author: NWS Internet Services Team
Disclaimer
Information Quality
Credits
Glossary
Privacy Policy
Freedom of Information Act (FOIA)
About Us
Career Opportunities